Time;durP1;ratioP1;P1;durP2;ratioP2;P2;SDS_P1;SDS_P2;PMS_P1;PMS_P2;Temp;Humidity;BMP_temperature;BMP_pressure;BME280_temperature;BME280_humidity;BME280_pressure;Samples;Min_cycle;Max_cycle;Signal;HPM_P1;HPM_P2
2024/03/29 00:01:35;;;;;;;;;;;;;;;12.19;48.60;94357.63;4159831;28;20422;-66
2024/03/29 00:03:36;;;;;;;;;;;;;;;12.18;48.74;94354.19;4167644;28;19948;-66
2024/03/29 00:05:37;;;;;;;;;;;;;;;12.08;49.03;94346.53;4173085;28;20015;-66
2024/03/29 00:07:38;;;;;;;;;;;;;;;11.98;48.86;94359.13;4172040;28;20438;-65
2024/03/29 00:09:38;;;;;;;;;;;;;;;11.86;49.17;94363.91;4175248;28;19920;-66
2024/03/29 00:11:39;;;;;;;;;;;;;;;11.83;49.40;94366.06;4174502;28;19967;-66
2024/03/29 00:13:39;;;;;;;;;;;;;;;11.91;49.52;94362.59;4171285;28;20338;-66
2024/03/29 00:15:40;;;;;;;;;;;;;;;12.01;48.96;94364.00;4172523;28;20016;-64
2024/03/29 00:17:40;;;;;;;;;;;;;;;12.09;48.60;94373.66;4169914;28;19975;-65
2024/03/29 00:19:41;;;;;;;;;;;;;;;12.04;48.76;94381.22;4155877;28;19921;-67
2024/03/29 00:21:42;;;;;;;;;;;;;;;12.02;48.91;94370.06;4171505;28;20007;-67
2024/03/29 00:23:44;;;;;;;;;;;;;;;11.97;48.75;94372.41;4166359;28;19925;-67
2024/03/29 00:25:45;;;;;;;;;;;;;;;12.04;48.83;94383.84;4169945;28;19924;-66
2024/03/29 00:27:48;;;;;;;;;;;;;;;11.95;48.95;94383.09;4173690;28;19925;-65
2024/03/29 00:29:52;;;;;;;;;;;;;;;11.84;49.19;94388.72;4156520;28;19921;-66
2024/03/29 00:31:53;;;;;;;;;;;;;;;11.74;49.47;94401.22;4168897;28;19925;-66
2024/03/29 00:33:53;;;;;;;;;;;;;;;11.62;49.82;94406.06;4168055;28;19951;-65
2024/03/29 00:35:54;;;;;;;;;;;;;;;11.47;50.30;94383.19;4162342;28;20039;-65
2024/03/29 00:37:55;;;;;;;;;;;;;;;11.34;50.42;94384.75;4169055;28;20347;-66
2024/03/29 00:39:55;;;;;;;;;;;;;;;11.45;50.74;94379.09;4171556;28;20364;-66
2024/03/29 00:41:56;;;;;;;;;;;;;;;11.71;50.02;94398.97;4169904;28;20406;-67
2024/03/29 00:43:56;;;;;;;;;;;;;;;11.95;49.30;94395.41;4166758;28;19921;-67
2024/03/29 00:45:57;;;;;;;;;;;;;;;12.17;48.72;94399.00;4172165;28;19947;-65
2024/03/29 00:47:58;;;;;;;;;;;;;;;12.37;48.16;94400.16;4155120;28;19979;-66
2024/03/29 00:49:58;;;;;;;;;;;;;;;12.49;47.61;94398.72;4175168;28;20019;-66
2024/03/29 00:51:59;;;;;;;;;;;;;;;12.58;46.97;94409.97;4169915;28;19925;-66
2024/03/29 00:54:01;;;;;;;;;;;;;;;12.67;47.05;94397.59;4163478;28;19920;-66
2024/03/29 00:56:02;;;;;;;;;;;;;;;12.78;46.83;94406.88;4170203;28;19971;-66
2024/03/29 00:58:03;;;;;;;;;;;;;;;12.83;47.08;94407.13;4164485;28;19924;-66
2024/03/29 01:00:04;;;;;;;;;;;;;;;12.80;46.58;94404.84;4144846;28;19921;-67
2024/03/29 01:02:04;;;;;;;;;;;;;;;12.89;47.03;94406.41;4165353;28;19951;-65
2024/03/29 01:04:05;;;;;;;;;;;;;;;12.96;46.52;94406.50;4168360;28;19925;-66
2024/03/29 01:06:05;;;;;;;;;;;;;;;12.85;46.65;94407.78;4172124;28;19983;-66
2024/03/29 01:08:06;;;;;;;;;;;;;;;12.88;46.39;94416.13;4170408;28;19931;-64
2024/03/29 01:10:08;;;;;;;;;;;;;;;12.58;47.24;94404.72;4167643;28;19975;-65
2024/03/29 01:12:09;;;;;;;;;;;;;;;12.46;47.45;94404.34;4164446;28;19971;-65
2024/03/29 01:14:10;;;;;;;;;;;;;;;12.55;47.43;94407.72;4173696;28;19967;-67
2024/03/29 01:16:10;;;;;;;;;;;;;;;12.66;47.01;94403.84;4172723;28;19921;-66
2024/03/29 01:18:11;;;;;;;;;;;;;;;12.75;47.06;94415.09;4174491;28;19924;-67
2024/03/29 01:20:12;;;;;;;;;;;;;;;12.79;47.19;94419.81;4171643;28;19976;-66
2024/03/29 01:22:13;;;;;;;;;;;;;;;12.85;46.67;94415.66;4173158;28;20364;-65
2024/03/29 01:24:13;;;;;;;;;;;;;;;12.91;46.57;94418.38;4164261;28;19983;-65
2024/03/29 01:26:17;;;;;;;;;;;;;;;12.98;46.49;94415.84;4175970;28;20015;-66
2024/03/29 01:28:17;;;;;;;;;;;;;;;13.04;46.58;94420.38;4172344;28;20229;-67
2024/03/29 01:30:18;;;;;;;;;;;;;;;13.04;46.35;94419.56;4172351;28;19920;-66
2024/03/29 01:32:19;;;;;;;;;;;;;;;12.98;46.21;94413.22;4175642;28;19925;-66
2024/03/29 01:34:19;;;;;;;;;;;;;;;12.97;46.29;94406.34;4167266;28;19932;-65
2024/03/29 01:36:20;;;;;;;;;;;;;;;12.96;46.58;94404.69;4171244;28;19929;-66
2024/03/29 01:38:23;;;;;;;;;;;;;;;12.93;46.76;94405.06;4170147;28;19932;-64
2024/03/29 01:40:23;;;;;;;;;;;;;;;12.93;46.35;94405.06;4168601;28;19921;-66
2024/03/29 01:42:24;;;;;;;;;;;;;;;12.92;46.51;94413.94;4166368;28;19945;-67
2024/03/29 01:44:24;;;;;;;;;;;;;;;12.84;46.63;94414.00;4173477;28;19933;-65
2024/03/29 01:46:25;;;;;;;;;;;;;;;12.82;46.77;94429.97;4174208;28;20075;-66
2024/03/29 01:48:26;;;;;;;;;;;;;;;12.82;47.05;94426.50;4168836;28;19944;-67
2024/03/29 01:50:27;;;;;;;;;;;;;;;12.83;47.37;94430.78;4160650;28;19975;-65
2024/03/29 01:52:30;;;;;;;;;;;;;;;12.87;47.15;94439.94;4150085;28;19922;-66
2024/03/29 01:54:31;;;;;;;;;;;;;;;12.87;47.27;94438.13;4171264;28;21804;-66
2024/03/29 01:56:31;;;;;;;;;;;;;;;12.91;47.15;94454.38;4150644;28;19929;-66
2024/03/29 01:58:32;;;;;;;;;;;;;;;12.92;47.39;94450.72;4166846;28;20284;-66
2024/03/29 02:00:33;;;;;;;;;;;;;;;12.91;47.36;94464.88;4171491;28;19921;-66
2024/03/29 02:02:33;;;;;;;;;;;;;;;12.93;46.95;94459.44;4163622;28;19924;-65
2024/03/29 02:04:34;;;;;;;;;;;;;;;12.88;46.99;94463.44;4147561;28;19922;-65
2024/03/29 02:06:35;;;;;;;;;;;;;;;12.87;46.95;94474.13;4162790;28;19925;-67
2024/03/29 02:08:36;;;;;;;;;;;;;;;12.85;47.09;94486.63;4170539;28;19924;-66
2024/03/29 02:10:37;;;;;;;;;;;;;;;12.82;46.63;94485.19;4166518;28;19925;-66
2024/03/29 02:12:37;;;;;;;;;;;;;;;12.82;46.85;94498.31;4159418;28;20020;-65
2024/03/29 02:14:39;;;;;;;;;;;;;;;12.87;47.12;94495.16;4174170;28;19932;-65
2024/03/29 02:16:42;;;;;;;;;;;;;;;12.87;47.22;94495.16;4169428;28;20597;-65
2024/03/29 02:18:42;;;;;;;;;;;;;;;12.88;46.52;94512.56;4165919;28;20001;-64
2024/03/29 02:20:43;;;;;;;;;;;;;;;12.88;47.14;94523.06;4146538;28;20533;-66
2024/03/29 02:22:46;;;;;;;;;;;;;;;12.86;46.82;94525.06;4165318;28;20044;-67
2024/03/29 02:24:47;;;;;;;;;;;;;;;12.88;46.50;94528.31;4169030;28;20598;-66
2024/03/29 02:26:47;;;;;;;;;;;;;;;12.94;46.84;94519.72;4157758;28;20037;-66
2024/03/29 02:28:48;;;;;;;;;;;;;;;12.91;47.41;94533.25;4171256;28;19931;-67
2024/03/29 02:31:08;;;;;;;;;;;;;;;12.93;47.60;94528.63;4168022;28;20337;-67
2024/03/29 02:33:08;;;;;;;;;;;;;;;12.88;47.83;94541.47;4163728;28;20216;-66
2024/03/29 02:35:09;;;;;;;;;;;;;;;12.88;47.59;94552.00;4172827;28;20300;-66
2024/03/29 02:37:10;;;;;;;;;;;;;;;12.87;47.62;94555.63;4156127;28;19928;-67
2024/03/29 02:39:10;;;;;;;;;;;;;;;12.88;47.23;94557.25;4167573;28;19932;-64
2024/03/29 02:41:11;;;;;;;;;;;;;;;12.88;47.39;94559.88;4166395;28;20340;-65
2024/03/29 02:43:12;;;;;;;;;;;;;;;12.89;46.99;94556.28;4173681;28;19921;-67
2024/03/29 02:45:12;;;;;;;;;;;;;;;12.91;46.78;94556.91;4167090;28;19980;-64
2024/03/29 02:47:13;;;;;;;;;;;;;;;12.94;46.56;94550.47;4162225;28;20015;-66
2024/03/29 02:49:13;;;;;;;;;;;;;;;12.91;46.49;94560.34;4167868;28;19920;-67
2024/03/29 02:51:14;;;;;;;;;;;;;;;12.88;46.57;94557.25;4159811;28;19928;-66
2024/03/29 02:53:15;;;;;;;;;;;;;;;12.87;46.62;94558.25;4164583;28;20066;-66
2024/03/29 02:55:15;;;;;;;;;;;;;;;12.88;47.18;94562.50;4172145;28;19924;-65
2024/03/29 02:57:16;;;;;;;;;;;;;;;12.88;46.87;94563.34;4172346;28;19940;-65
2024/03/29 02:59:16;;;;;;;;;;;;;;;12.85;46.93;94549.72;4169867;28;19979;-65
2024/03/29 03:01:17;;;;;;;;;;;;;;;12.82;47.25;94555.31;4173793;28;19921;-65
2024/03/29 03:03:18;;;;;;;;;;;;;;;12.79;47.25;94550.44;4167660;28;19924;-67
2024/03/29 03:05:18;;;;;;;;;;;;;;;12.77;47.55;94555.03;4174836;28;19951;-66
2024/03/29 03:11:59;;;;;;;;;;;;;;;12.78;47.59;94575.09;4170270;28;19921;-65
2024/03/29 03:13:59;;;;;;;;;;;;;;;12.78;47.83;94575.91;4165316;28;20245;-65
2024/03/29 03:16:00;;;;;;;;;;;;;;;12.77;47.67;94583.97;4169098;28;19978;-65
2024/03/29 03:18:00;;;;;;;;;;;;;;;12.78;47.60;94580.34;4173871;28;20442;-66
2024/03/29 03:20:01;;;;;;;;;;;;;;;12.80;47.71;94583.59;4172510;28;20129;-66
2024/03/29 03:22:01;;;;;;;;;;;;;;;12.78;47.72;94586.41;4175606;28;19924;-64
2024/03/29 03:24:04;;;;;;;;;;;;;;;12.78;47.76;94588.22;4176902;28;20012;-66
2024/03/29 03:26:05;;;;;;;;;;;;;;;12.75;47.78;94591.19;4174323;28;19936;-66
2024/03/29 03:28:05;;;;;;;;;;;;;;;12.73;47.99;94593.19;4177199;28;19929;-67
2024/03/29 03:30:06;;;;;;;;;;;;;;;12.70;48.11;94595.16;4163912;28;20196;-65
2024/03/29 03:32:07;;;;;;;;;;;;;;;12.68;48.21;94591.88;4175095;28;20070;-69
2024/03/29 03:34:07;;;;;;;;;;;;;;;12.68;48.12;94598.97;4177831;28;20074;-68
2024/03/29 03:36:08;;;;;;;;;;;;;;;12.65;48.52;94594.88;4176433;28;19924;-66
2024/03/29 03:38:08;;;;;;;;;;;;;;;12.62;48.54;94602.28;4174880;28;19936;-67
2024/03/29 03:40:10;;;;;;;;;;;;;;;12.61;48.49;94603.28;4164986;28;19924;-67
2024/03/29 03:42:11;;;;;;;;;;;;;;;12.41;49.30;94614.25;4176436;28;19921;-66
2024/03/29 03:44:12;;;;;;;;;;;;;;;12.34;49.24;94612.47;4174751;28;19927;-66
2024/03/29 03:46:12;;;;;;;;;;;;;;;12.35;49.44;94619.38;4169959;28;19979;-66
2024/03/29 03:48:13;;;;;;;;;;;;;;;12.35;49.57;94627.25;4175527;28;19920;-67
2024/03/29 03:50:13;;;;;;;;;;;;;;;12.31;49.47;94628.56;4160018;28;19952;-65
2024/03/29 03:52:14;;;;;;;;;;;;;;;12.32;49.69;94636.25;4176475;28;19967;-66
2024/03/29 03:54:15;;;;;;;;;;;;;;;12.34;49.91;94636.91;4174654;28;19925;-67
2024/03/29 03:56:15;;;;;;;;;;;;;;;12.34;50.12;94636.91;4176685;28;20296;-65
2024/03/29 03:58:16;;;;;;;;;;;;;;;12.32;50.02;94636.25;4173172;28;19920;-65
2024/03/29 04:00:20;;;;;;;;;;;;;;;12.32;49.84;94638.88;4178443;28;19920;-66
2024/03/29 04:02:21;;;;;;;;;;;;;;;12.29;50.02;94645.31;4173529;28;20457;-67
2024/03/29 04:04:21;;;;;;;;;;;;;;;12.08;50.70;94645.88;4172579;28;20007;-65
2024/03/29 04:06:22;;;;;;;;;;;;;;;11.80;51.51;94660.38;4161590;28;19931;-69
2024/03/29 04:08:23;;;;;;;;;;;;;;;11.77;51.54;94653.66;4166100;28;19929;-67
2024/03/29 04:10:23;;;;;;;;;;;;;;;11.85;51.67;94658.91;4161146;28;20471;-69
2024/03/29 04:12:24;;;;;;;;;;;;;;;11.91;51.31;94646.91;4167995;28;19924;-66
2024/03/29 04:14:24;;;;;;;;;;;;;;;11.96;50.82;94651.66;4171975;28;19929;-67
2024/03/29 04:16:25;;;;;;;;;;;;;;;12.03;50.55;94652.63;4165532;28;19925;-68
2024/03/29 04:18:26;;;;;;;;;;;;;;;12.03;50.06;94657.88;4166490;28;20015;-65
2024/03/29 04:20:26;;;;;;;;;;;;;;;12.14;50.01;94661.97;4162871;28;19925;-66
2024/03/29 04:22:30;;;;;;;;;;;;;;;12.20;49.79;94664.72;4165365;28;20175;-66
2024/03/29 04:24:31;;;;;;;;;;;;;;;12.27;49.62;94675.38;4168430;28;20384;-65
2024/03/29 04:26:31;;;;;;;;;;;;;;;12.31;49.13;94675.84;4171973;28;19960;-67
2024/03/29 04:28:32;;;;;;;;;;;;;;;12.38;49.09;94676.81;4152073;28;19928;-66
2024/03/29 04:30:33;;;;;;;;;;;;;;;12.41;49.00;94673.81;4167512;28;19921;-67
2024/03/29 04:32:33;;;;;;;;;;;;;;;12.42;48.86;94678.91;4173174;28;19921;-67
2024/03/29 04:34:34;;;;;;;;;;;;;;;12.40;49.95;94693.22;4164424;28;19991;-66
2024/03/29 04:36:35;;;;;;;;;;;;;;;12.24;50.05;94692.28;4147367;28;20017;-66
2024/03/29 04:38:35;;;;;;;;;;;;;;;12.26;50.45;94703.44;4170680;28;20075;-68
2024/03/29 04:40:36;;;;;;;;;;;;;;;12.25;51.45;94700.97;4168304;28;19921;-67
2024/03/29 04:42:37;;;;;;;;;;;;;;;12.34;50.80;94693.88;4171043;28;19933;-65
2024/03/29 04:44:39;;;;;;;;;;;;;;;12.38;49.16;94701.25;4167854;28;20030;-68
2024/03/29 04:46:40;;;;;;;;;;;;;;;12.44;49.11;94710.28;4172198;28;20335;-66
2024/03/29 04:48:41;;;;;;;;;;;;;;;12.53;48.66;94704.00;4168026;28;19995;-65
2024/03/29 04:50:42;;;;;;;;;;;;;;;12.61;48.54;94717.09;4166324;28;19920;-66
2024/03/29 04:52:42;;;;;;;;;;;;;;;12.72;48.09;94713.28;4162234;28;19928;-66
2024/03/29 04:54:43;;;;;;;;;;;;;;;12.83;47.47;94723.41;4164796;28;20404;-66
2024/03/29 04:56:44;;;;;;;;;;;;;;;12.93;47.48;94730.25;4172438;28;19920;-66
2024/03/29 04:58:46;;;;;;;;;;;;;;;12.97;47.62;94734.16;4164875;28;20016;-68
2024/03/29 05:00:48;;;;;;;;;;;;;;;13.03;47.24;94721.16;4165906;28;19928;-69
2024/03/29 05:02:48;;;;;;;;;;;;;;;13.13;47.42;94728.00;4166898;28;19944;-68
2024/03/29 05:04:49;;;;;;;;;;;;;;;13.21;47.07;94728.78;4165633;28;19921;-67
2024/03/29 05:06:49;;;;;;;;;;;;;;;13.28;46.93;94736.78;4176169;28;19927;-67
2024/03/29 05:08:50;;;;;;;;;;;;;;;13.35;47.10;94734.31;4176091;28;19933;-68
2024/03/29 05:10:51;;;;;;;;;;;;;;;13.36;47.44;94731.50;4177471;28;19921;-67
2024/03/29 05:12:53;;;;;;;;;;;;;;;13.30;48.13;94737.47;4176327;28;19927;-68
2024/03/29 05:14:54;;;;;;;;;;;;;;;13.33;48.64;94739.75;4165623;28;19921;-69
2024/03/29 05:16:55;;;;;;;;;;;;;;;13.35;48.30;94745.66;4160235;28;20012;-67
2024/03/29 05:18:55;;;;;;;;;;;;;;;13.34;48.09;94744.03;4170326;28;19929;-69
2024/03/29 05:20:56;;;;;;;;;;;;;;;13.41;47.83;94750.22;4163980;28;19921;-69
2024/03/29 05:22:57;;;;;;;;;;;;;;;13.41;48.13;94749.41;4170233;28;19928;-69
2024/03/29 05:24:58;;;;;;;;;;;;;;;13.34;48.34;94754.53;4166986;28;19921;-68
2024/03/29 05:26:59;;;;;;;;;;;;;;;13.29;48.39;94757.72;4158031;28;19921;-68
2024/03/29 05:28:59;;;;;;;;;;;;;;;13.31;48.02;94760.97;4165269;28;19960;-69
2024/03/29 05:31:09;;;;;;;;;;;;;;;13.41;47.73;94763.38;4170733;28;19920;-68
2024/03/29 05:33:09;;;;;;;;;;;;;;;13.60;47.03;94764.72;4170709;28;19967;-68
2024/03/29 05:35:11;;;;;;;;;;;;;;;13.75;46.20;94758.69;4174210;28;20348;-68
2024/03/29 05:37:11;;;;;;;;;;;;;;;13.90;46.05;94765.63;4176516;28;19964;-69
2024/03/29 05:39:12;;;;;;;;;;;;;;;14.06;45.57;94769.13;4171116;28;19920;-67
2024/03/29 05:41:12;;;;;;;;;;;;;;;14.20;45.38;94770.97;4168652;28;19928;-67
2024/03/29 05:43:13;;;;;;;;;;;;;;;14.30;45.23;94763.63;4177401;28;19927;-68
2024/03/29 05:45:25;;;;;;;;;;;;;;;14.43;44.86;94765.63;4170456;28;19920;-67
2024/03/29 05:47:26;;;;;;;;;;;;;;;14.58;44.61;94768.28;4170630;28;19999;-68
2024/03/29 05:49:26;;;;;;;;;;;;;;;14.69;44.31;94767.84;4168789;28;20364;-68
2024/03/29 05:51:27;;;;;;;;;;;;;;;14.79;44.10;94764.09;4164849;28;20007;-69
2024/03/29 05:53:27;;;;;;;;;;;;;;;14.87;43.95;94761.38;4162622;28;20299;-70
2024/03/29 05:55:28;;;;;;;;;;;;;;;14.92;43.81;94770.34;4157483;28;20665;-67
2024/03/29 05:57:31;;;;;;;;;;;;;;;14.89;43.83;94767.28;4169263;28;20001;-68
2024/03/29 05:59:31;;;;;;;;;;;;;;;14.99;43.76;94759.06;4167294;28;19928;-68
2024/03/29 06:01:32;;;;;;;;;;;;;;;15.00;43.75;94761.53;4170747;28;19952;-68
2024/03/29 06:03:32;;;;;;;;;;;;;;;15.03;43.54;94776.16;4162943;28;19970;-69
2024/03/29 06:05:33;;;;;;;;;;;;;;;15.07;43.60;94774.81;4169162;28;20476;-70
2024/03/29 06:07:33;;;;;;;;;;;;;;;14.98;43.58;94778.56;4169769;28;19925;-71
2024/03/29 06:09:34;;;;;;;;;;;;;;;14.99;43.89;94780.97;4164524;28;19925;-68
2024/03/29 06:11:35;;;;;;;;;;;;;;;14.93;44.06;94781.75;4168889;28;20011;-67
2024/03/29 06:18:16;;;;;;;;;;;;;;;15.10;43.16;94780.53;4171209;28;20166;-68
2024/03/29 06:20:16;;;;;;;;;;;;;;;15.24;42.91;94786.78;4162457;28;19970;-65
2024/03/29 06:22:17;;;;;;;;;;;;;;;15.36;42.75;94785.28;4171675;28;19920;-70
2024/03/29 06:24:18;;;;;;;;;;;;;;;15.48;42.28;94787.44;4173539;28;20411;-67
2024/03/29 06:26:19;;;;;;;;;;;;;;;15.47;41.57;94794.56;4173388;28;19983;-68
2024/03/29 06:28:20;;;;;;;;;;;;;;;15.45;42.26;94791.28;4173646;28;19932;-68
2024/03/29 06:30:21;;;;;;;;;;;;;;;15.44;42.03;94797.53;4169583;28;19921;-68
2024/03/29 06:32:21;;;;;;;;;;;;;;;15.53;41.79;94799.09;4172454;28;19976;-68
2024/03/29 06:34:22;;;;;;;;;;;;;;;15.61;41.66;94790.22;4160574;28;19935;-67
2024/03/29 06:36:22;;;;;;;;;;;;;;;15.75;41.17;94791.22;4170442;28;19920;-69
2024/03/29 06:38:23;;;;;;;;;;;;;;;15.79;41.37;94792.47;4170676;28;19936;-71
2024/03/29 06:40:23;;;;;;;;;;;;;;;15.87;41.33;94794.16;4170489;28;19921;-68
2024/03/29 06:42:24;;;;;;;;;;;;;;;15.87;41.04;94799.44;4176398;28;19921;-68
2024/03/29 06:44:26;;;;;;;;;;;;;;;15.84;41.39;94790.06;4171370;28;19924;-69
2024/03/29 06:46:27;;;;;;;;;;;;;;;15.71;41.69;94798.69;4176755;28;19929;-69
2024/03/29 06:48:27;;;;;;;;;;;;;;;15.76;41.80;94796.28;4172806;28;19920;-69
2024/03/29 06:50:28;;;;;;;;;;;;;;;15.69;41.77;94794.56;4176847;28;19931;-69
2024/03/29 06:52:29;;;;;;;;;;;;;;;15.85;41.75;94796.16;4177066;28;19920;-67
2024/03/29 06:54:30;;;;;;;;;;;;;;;15.74;41.94;94793.03;4174464;28;19928;-68
2024/03/29 06:56:30;;;;;;;;;;;;;;;15.72;42.18;94795.06;4164825;28;19920;-66
2024/03/29 06:58:31;;;;;;;;;;;;;;;15.55;42.20;94790.97;4174481;28;19971;-69
2024/03/29 07:00:32;;;;;;;;;;;;;;;15.34;42.73;94800.50;4177434;28;19925;-71
2024/03/29 07:02:32;;;;;;;;;;;;;;;15.37;42.98;94801.94;4175220;28;19936;-68
2024/03/29 07:04:33;;;;;;;;;;;;;;;15.28;42.94;94806.50;4171320;28;20396;-70
2024/03/29 07:06:34;;;;;;;;;;;;;;;15.33;43.52;94809.41;4174736;28;20015;-70
2024/03/29 07:08:34;;;;;;;;;;;;;;;15.28;43.36;94806.50;4173632;28;20098;-70
2024/03/29 07:10:35;;;;;;;;;;;;;;;15.35;43.36;94817.16;4166252;28;19925;-69
2024/03/29 07:12:36;;;;;;;;;;;;;;;15.22;43.70;94820.44;4168476;28;19925;-70
2024/03/29 07:14:37;;;;;;;;;;;;;;;15.27;43.47;94819.88;4169329;28;19929;-69
2024/03/29 07:16:38;;;;;;;;;;;;;;;15.42;42.93;94822.50;4175858;28;19921;-69
2024/03/29 07:18:38;;;;;;;;;;;;;;;15.59;42.40;94817.81;4163264;28;19921;-68
2024/03/29 07:20:39;;;;;;;;;;;;;;;15.65;42.17;94812.59;4166373;28;19986;-70
2024/03/29 07:22:41;;;;;;;;;;;;;;;15.32;43.09;94822.81;4170453;28;20437;-67
2024/03/29 07:24:41;;;;;;;;;;;;;;;15.50;43.12;94814.47;4153385;28;19921;-69
2024/03/29 07:26:42;;;;;;;;;;;;;;;15.75;42.89;94831.63;4173011;28;19924;-67
2024/03/29 07:28:42;;;;;;;;;;;;;;;15.82;42.29;94818.50;4170628;28;19974;-70
2024/03/29 07:30:44;;;;;;;;;;;;;;;15.91;42.18;94812.06;4172931;28;19935;-68
2024/03/29 07:32:45;;;;;;;;;;;;;;;16.27;42.02;94811.16;4176506;28;20343;-67
2024/03/29 07:34:45;;;;;;;;;;;;;;;16.13;41.64;94819.97;4174668;28;19931;-68
2024/03/29 07:36:47;;;;;;;;;;;;;;;15.84;42.09;94815.69;4174803;28;20526;-67
2024/03/29 07:38:48;;;;;;;;;;;;;;;15.76;42.32;94820.06;4166513;28;19925;-69
2024/03/29 07:40:49;;;;;;;;;;;;;;;16.14;42.20;94817.16;4171924;28;20015;-70
2024/03/29 07:42:49;;;;;;;;;;;;;;;16.52;41.61;94816.84;4174215;28;20344;-71
2024/03/29 07:44:50;;;;;;;;;;;;;;;16.63;40.56;94807.56;4165829;28;19971;-69
2024/03/29 07:46:51;;;;;;;;;;;;;;;16.86;40.52;94803.84;4167582;28;19969;-69
2024/03/29 07:48:53;;;;;;;;;;;;;;;17.06;40.14;94803.97;4177967;28;19936;-68
2024/03/29 07:50:53;;;;;;;;;;;;;;;16.83;40.45;94809.56;4176235;28;19947;-69
2024/03/29 07:52:54;;;;;;;;;;;;;;;16.94;40.49;94801.06;4168876;28;19920;-69
2024/03/29 07:54:54;;;;;;;;;;;;;;;17.21;39.54;94804.66;4176238;28;19976;-70
2024/03/29 07:56:55;;;;;;;;;;;;;;;17.25;39.48;94802.41;4162803;28;19929;-67
2024/03/29 07:58:56;;;;;;;;;;;;;;;17.53;39.27;94812.91;4170760;28;19932;-69
2024/03/29 08:00:56;;;;;;;;;;;;;;;17.51;38.97;94813.13;4158603;28;19940;-69
2024/03/29 08:02:57;;;;;;;;;;;;;;;17.53;39.01;94821.69;4165888;28;19920;-69
2024/03/29 08:04:57;;;;;;;;;;;;;;;17.34;39.32;94811.84;4158596;28;19956;-70
2024/03/29 08:06:58;;;;;;;;;;;;;;;17.44;39.21;94820.19;4163010;28;19921;-67
2024/03/29 08:08:58;;;;;;;;;;;;;;;17.58;39.19;94813.94;4179921;28;19928;-68
2024/03/29 08:10:59;;;;;;;;;;;;;;;17.84;38.98;94812.41;4169035;28;19944;-68
2024/03/29 08:13:01;;;;;;;;;;;;;;;18.11;38.47;94807.97;4153588;28;20399;-69
2024/03/29 08:15:02;;;;;;;;;;;;;;;18.24;38.01;94808.97;4159448;28;19932;-67
2024/03/29 08:17:04;;;;;;;;;;;;;;;18.32;38.06;94798.97;4171524;28;19921;-70
2024/03/29 08:19:05;;;;;;;;;;;;;;;18.34;38.21;94802.25;4178363;28;20292;-69
2024/03/29 08:21:11;;;;;;;;;;;;;;;18.31;37.59;94799.19;4173520;28;20058;-68
2024/03/29 08:23:12;;;;;;;;;;;;;;;18.21;38.21;94796.94;4173257;28;19929;-71
2024/03/29 08:25:13;;;;;;;;;;;;;;;18.49;38.04;94788.75;4175077;28;20343;-67
2024/03/29 08:27:13;;;;;;;;;;;;;;;18.48;37.94;94784.50;4167880;28;19975;-67
2024/03/29 08:29:14;;;;;;;;;;;;;;;18.57;37.99;94785.09;4169598;28;19928;-70
2024/03/29 08:31:15;;;;;;;;;;;;;;;18.82;37.75;94783.44;4167826;28;19960;-69
2024/03/29 08:33:15;;;;;;;;;;;;;;;19.12;37.30;94782.13;4170740;28;20022;-68
2024/03/29 08:35:16;;;;;;;;;;;;;;;19.34;36.70;94780.00;4163344;28;19957;-69
2024/03/29 08:37:18;;;;;;;;;;;;;;;18.70;36.40;94785.06;4164034;28;19921;-68
2024/03/29 08:39:19;;;;;;;;;;;;;;;18.17;37.55;94777.97;4168514;28;19942;-67
2024/03/29 08:41:19;;;;;;;;;;;;;;;18.14;37.97;94780.22;4170769;28;19929;-67
2024/03/29 08:43:20;;;;;;;;;;;;;;;18.13;37.87;94778.56;4171164;28;19928;-69
2024/03/29 08:45:21;;;;;;;;;;;;;;;18.13;38.19;94778.56;4170880;28;19920;-69
2024/03/29 08:47:22;;;;;;;;;;;;;;;18.28;37.37;94771.22;4168789;28;19982;-69
2024/03/29 08:49:22;;;;;;;;;;;;;;;18.45;37.57;94774.28;4166172;28;19948;-69
2024/03/29 08:51:23;;;;;;;;;;;;;;;18.76;37.36;94776.28;4167483;28;19964;-67
2024/03/29 08:53:27;;;;;;;;;;;;;;;19.01;36.48;94770.31;4151648;28;19925;-67
2024/03/29 08:55:27;;;;;;;;;;;;;;;19.13;36.20;94773.13;4175899;28;19940;-67
2024/03/29 08:57:28;;;;;;;;;;;;;;;19.37;35.67;94768.94;4174767;28;20400;-69
2024/03/29 08:59:28;;;;;;;;;;;;;;;19.58;35.11;94765.16;4168967;28;20350;-71
2024/03/29 09:01:29;;;;;;;;;;;;;;;19.80;35.13;94760.34;4171153;28;19944;-70
2024/03/29 09:03:30;;;;;;;;;;;;;;;19.88;34.51;94754.78;4174656;28;19925;-71
2024/03/29 09:05:31;;;;;;;;;;;;;;;19.98;34.96;94755.13;4170561;28;19947;-67
2024/03/29 09:07:31;;;;;;;;;;;;;;;20.17;34.19;94749.84;4171127;28;19925;-67
2024/03/29 09:09:32;;;;;;;;;;;;;;;20.19;32.99;94755.78;4161673;28;19956;-69
2024/03/29 09:11:33;;;;;;;;;;;;;;;20.10;32.15;94747.25;4157230;28;19925;-69
2024/03/29 09:13:34;;;;;;;;;;;;;;;19.66;33.04;94743.66;4159280;28;20002;-69
2024/03/29 09:15:34;;;;;;;;;;;;;;;19.94;33.08;94737.97;4165866;28;20003;-68
2024/03/29 09:17:36;;;;;;;;;;;;;;;20.21;32.29;94730.56;4170256;28;19921;-68
2024/03/29 09:19:37;;;;;;;;;;;;;;;20.32;32.14;94728.25;4168831;28;19932;-70
2024/03/29 09:21:37;;;;;;;;;;;;;;;20.19;31.45;94719.34;4169032;28;20034;-69
2024/03/29 09:23:41;;;;;;;;;;;;;;;19.86;31.57;94730.25;4169575;28;19929;-69
2024/03/29 09:25:42;;;;;;;;;;;;;;;19.63;31.41;94722.81;4172232;28;19921;-69
2024/03/29 09:27:44;;;;;;;;;;;;;;;19.53;31.94;94712.66;4164634;28;20395;-70
2024/03/29 09:29:47;;;;;;;;;;;;;;;19.53;32.26;94707.34;4172022;28;19921;-68
2024/03/29 09:31:48;;;;;;;;;;;;;;;19.82;32.80;94703.28;4170923;28;19921;-71
2024/03/29 09:33:52;;;;;;;;;;;;;;;19.68;31.23;94699.09;4175164;28;19963;-68
2024/03/29 09:35:54;;;;;;;;;;;;;;;19.53;32.08;94693.22;4170037;28;19948;-69
2024/03/29 09:37:56;;;;;;;;;;;;;;;19.11;32.70;94700.84;4172029;28;20249;-71
2024/03/29 09:39:57;;;;;;;;;;;;;;;19.47;32.82;94689.59;4172436;28;19927;-68
2024/03/29 09:41:57;;;;;;;;;;;;;;;19.89;32.71;94684.63;4177495;28;19920;-68
2024/03/29 09:43:59;;;;;;;;;;;;;;;20.28;32.15;94684.50;4172638;28;20441;-67
2024/03/29 09:46:00;;;;;;;;;;;;;;;20.28;32.08;94684.50;4167564;28;19972;-68
2024/03/29 09:48:04;;;;;;;;;;;;;;;20.23;32.18;94674.50;4154384;28;20014;-68
2024/03/29 09:50:05;;;;;;;;;;;;;;;20.23;32.28;94672.66;4174025;28;19924;-68
2024/03/29 09:52:06;;;;;;;;;;;;;;;20.29;31.98;94667.50;4168705;28;20006;-71
2024/03/29 09:54:08;;;;;;;;;;;;;;;20.44;31.91;94667.97;4151076;28;20159;-69
2024/03/29 09:56:09;;;;;;;;;;;;;;;20.39;31.91;94675.78;4150805;28;20238;-70
2024/03/29 09:58:09;;;;;;;;;;;;;;;20.28;31.55;94669.34;4175031;28;19955;-67
2024/03/29 10:00:11;;;;;;;;;;;;;;;20.51;32.13;94670.53;4174023;28;20000;-68
2024/03/29 10:02:16;;;;;;;;;;;;;;;20.48;31.68;94669.16;4171547;28;19924;-71
2024/03/29 10:04:18;;;;;;;;;;;;;;;20.76;31.70;94675.84;4158021;28;19937;-68
2024/03/29 10:06:19;;;;;;;;;;;;;;;20.91;31.42;94668.28;4151750;28;19929;-68
2024/03/29 10:08:20;;;;;;;;;;;;;;;21.21;31.17;94662.97;4170575;28;19975;-69
2024/03/29 10:10:20;;;;;;;;;;;;;;;21.16;30.77;94659.34;4169063;28;20366;-69
2024/03/29 10:12:21;;;;;;;;;;;;;;;21.26;31.08;94664.94;4174782;28;19925;-69
2024/03/29 10:14:23;;;;;;;;;;;;;;;21.00;30.99;94666.91;4177544;28;19971;-69
2024/03/29 10:16:24;;;;;;;;;;;;;;;21.12;30.87;94671.47;4176425;28;20038;-70
2024/03/29 10:18:25;;;;;;;;;;;;;;;21.11;31.16;94661.88;4180141;28;20503;-68
2024/03/29 10:20:27;;;;;;;;;;;;;;;20.85;31.54;94663.84;4157559;28;20044;-68
2024/03/29 10:22:27;;;;;;;;;;;;;;;20.77;31.54;94656.16;4179596;28;19921;-68
2024/03/29 10:24:28;;;;;;;;;;;;;;;20.74;31.46;94657.41;4176449;28;19928;-67
2024/03/29 10:26:29;;;;;;;;;;;;;;;20.89;31.17;94662.34;4180551;28;19925;-68
2024/03/29 10:28:33;;;;;;;;;;;;;;;20.94;31.23;94665.16;4156685;28;19963;-69
2024/03/29 10:30:34;;;;;;;;;;;;;;;21.08;31.24;94665.81;4176217;28;19955;-69
2024/03/29 10:32:37;;;;;;;;;;;;;;;21.36;31.00;94661.72;4161228;28;19983;-68
2024/03/29 10:34:39;;;;;;;;;;;;;;;21.07;31.03;94667.63;4162632;28;19925;-69
2024/03/29 10:36:39;;;;;;;;;;;;;;;20.81;31.49;94667.97;4177100;28;19955;-69
2024/03/29 10:38:40;;;;;;;;;;;;;;;20.78;31.75;94663.94;4174547;28;19925;-67
2024/03/29 10:40:41;;;;;;;;;;;;;;;20.82;31.74;94659.78;4170728;28;19921;-67